Time;durP1;ratioP1;P1;durP2;ratioP2;P2;SDS_P1;SDS_P2;PMS_P1;PMS_P2;Temp;Humidity;BMP_temperature;BMP_pressure;BME280_temperature;BME280_humidity;BME280_pressure;Samples;Min_cycle;Max_cycle;Signal;HPM_P1;HPM_P2
2020/12/08 00:00:13;;;;;;;34.58;17.82;;;;;;;2.72;77.31;100256.77;1694497;82;21142;-74
2020/12/08 00:02:39;;;;;;;34.27;19.20;;;;;;;2.71;77.33;100258.89;1699315;82;21239;-74
2020/12/08 00:05:05;;;;;;;34.63;18.77;;;;;;;2.69;77.33;100261.42;1696884;82;21029;-74
2020/12/08 00:07:32;;;;;;;37.73;19.95;;;;;;;2.67;77.31;100256.72;1686256;82;25463;-74
2020/12/08 00:09:58;;;;;;;33.65;19.15;;;;;;;2.65;77.34;100260.54;1676323;82;21259;-74
2020/12/08 00:12:26;;;;;;;32.48;18.80;;;;;;;2.64;77.35;100267.76;1689659;82;21636;-74
2020/12/08 00:14:56;;;;;;;39.50;20.25;;;;;;;2.60;77.34;100253.70;1698744;82;21297;-74
2020/12/08 00:17:22;;;;;;;34.27;18.65;;;;;;;2.58;77.40;100260.48;1691327;82;21204;-73
2020/12/08 00:19:49;;;;;;;34.67;19.02;;;;;;;2.57;77.40;100260.05;1692617;82;21187;-73
2020/12/08 00:22:15;;;;;;;33.58;19.00;;;;;;;2.54;77.43;100255.77;1693254;82;21184;-74
2020/12/08 00:24:41;;;;;;;35.85;19.85;;;;;;;2.53;77.44;100254.06;1690462;82;26696;-74
2020/12/08 00:27:10;;;;;;;38.02;22.17;;;;;;;2.53;77.47;100253.20;1681874;82;21214;-74
2020/12/08 00:29:40;;;;;;;36.05;20.23;;;;;;;2.52;77.46;100252.77;1689679;82;21215;-74
2020/12/08 00:32:08;;;;;;;33.63;19.52;;;;;;;2.50;77.51;100256.58;1688893;82;21243;-74
2020/12/08 00:34:36;;;;;;;34.55;18.82;;;;;;;2.50;77.55;100254.03;1695935;82;21210;-73
2020/12/08 00:37:03;;;;;;;35.03;20.05;;;;;;;2.49;77.48;100257.42;1698599;82;21135;-73
2020/12/08 00:39:29;;;;;;;34.80;19.95;;;;;;;2.48;77.52;100261.23;1693611;84;21196;-73
2020/12/08 00:41:54;;;;;;;40.40;21.07;;;;;;;2.48;77.53;100263.78;1695846;83;21104;-73
2020/12/08 00:44:21;;;;;;;33.23;19.90;;;;;;;2.46;77.51;100261.63;1686917;82;20977;-73
2020/12/08 00:46:50;;;;;;;35.43;21.12;;;;;;;2.45;77.54;100258.22;1681384;82;21581;-73
2020/12/08 00:49:17;;;;;;;38.00;20.57;;;;;;;2.43;77.56;100258.63;1692217;82;21198;-73
2020/12/08 00:51:43;;;;;;;33.55;19.55;;;;;;;2.43;77.58;100257.77;1690650;83;21922;-73
2020/12/08 00:54:09;;;;;;;32.63;19.70;;;;;;;2.40;77.56;100254.77;1691328;83;21194;-73
2020/12/08 00:56:36;;;;;;;40.10;21.55;;;;;;;2.37;77.54;100256.42;1692233;84;21132;-73
2020/12/08 00:59:02;;;;;;;40.25;22.40;;;;;;;2.33;77.57;100250.01;1692357;82;21202;-73
2020/12/08 01:01:29;;;;;;;37.08;20.95;;;;;;;2.31;77.56;100248.28;1693969;83;21207;-73
2020/12/08 01:03:56;;;;;;;39.55;20.68;;;;;;;2.28;77.58;100255.48;1694450;82;22317;-73
2020/12/08 01:06:25;;;;;;;;;;;;;;;2.27;77.56;100260.56;1686071;82;5000994;-73
2020/12/08 01:08:51;;;;;;;34.95;20.25;;;;;;;2.24;77.45;100254.15;1733930;81;20300;-73
2020/12/08 01:11:17;;;;;;;33.30;19.47;;;;;;;2.22;77.59;100259.65;1731387;82;21140;-73
2020/12/08 01:13:43;;;;;;;32.17;20.27;;;;;;;2.19;77.63;100259.61;1729295;81;21745;-73
2020/12/08 01:16:09;;;;;;;42.58;20.80;;;;;;;2.19;77.63;100259.61;1721126;82;21096;-73
2020/12/08 01:18:35;;;;;;;38.38;20.35;;;;;;;2.17;77.63;100262.14;1721755;81;21674;-73
2020/12/08 01:21:01;;;;;;;44.73;21.53;;;;;;;2.16;77.67;100262.98;1716948;81;20999;-73
2020/12/08 01:23:27;;;;;;;34.40;19.67;;;;;;;2.15;77.60;100254.89;1727113;81;21107;-73
2020/12/08 01:25:53;;;;;;;38.83;21.10;;;;;;;2.13;77.65;100255.70;1723265;81;20948;-74
2020/12/08 01:28:19;;;;;;;37.27;20.83;;;;;;;2.12;77.63;100254.00;1734288;82;21777;-74
2020/12/08 01:30:49;;;;;;;36.13;19.67;;;;;;;2.11;77.66;100245.91;1733086;81;20973;-73
2020/12/08 01:33:15;;;;;;;37.17;20.75;;;;;;;2.11;77.67;100244.63;1721605;81;21152;-73
2020/12/08 01:35:43;;;;;;;33.10;20.37;;;;;;;2.10;77.65;100244.20;1731717;82;20900;-73
2020/12/08 01:38:10;;;;;;;35.70;20.43;;;;;;;2.10;77.66;100250.57;1729105;82;21095;-74
2020/12/08 01:40:36;;;;;;;34.65;19.20;;;;;;;2.09;77.69;100251.41;1728527;81;21122;-74
2020/12/08 01:43:02;;;;;;;38.38;19.05;;;;;;;2.10;77.70;100263.32;1721864;82;21266;-74
2020/12/08 01:45:28;;;;;;;35.40;19.87;;;;;;;2.11;77.69;100258.66;1727924;81;21126;-74
2020/12/08 01:47:54;;;;;;;41.77;21.63;;;;;;;2.11;77.68;100259.94;1728424;81;20956;-74
2020/12/08 01:50:21;;;;;;;32.95;19.92;;;;;;;2.12;77.75;100259.95;1728296;81;21717;-74
2020/12/08 01:52:48;;;;;;;33.18;19.23;;;;;;;2.13;77.71;100268.46;1734745;81;21413;-74
2020/12/08 01:55:15;;;;;;;36.73;18.57;;;;;;;2.16;77.76;100272.33;1730825;81;21169;-74
2020/12/08 01:57:42;;;;;;;33.08;20.10;;;;;;;2.17;77.68;100268.94;1727403;81;21128;-74
2020/12/08 02:00:09;;;;;;;30.48;18.25;;;;;;;2.15;77.68;100266.78;1730879;82;21234;-74
2020/12/08 02:02:34;;;;;;;40.52;20.57;;;;;;;2.14;77.66;100267.20;1721673;81;29128;-74
2020/12/08 02:05:01;;;;;;;34.40;20.90;;;;;;;2.16;77.71;100268.50;1693609;82;20974;-74
2020/12/08 02:07:28;;;;;;;37.55;19.52;;;;;;;2.14;77.66;100259.97;1676781;83;21214;-74
2020/12/08 02:09:54;;;;;;;;;;;;;;;2.13;77.68;100255.70;1698180;84;21223;-74
2020/12/08 02:12:20;;;;;;;37.20;18.25;;;;;;;2.13;77.73;100255.70;1692724;83;20251;-74
2020/12/08 02:14:46;;;;;;;37.97;19.93;;;;;;;2.11;77.68;100259.52;1680862;84;21013;-74
2020/12/08 02:17:11;;;;;;;39.30;19.52;;;;;;;2.10;77.70;100262.91;1688788;83;21063;-74
2020/12/08 02:19:37;;;;;;;34.43;20.77;;;;;;;2.10;77.69;100256.95;1695966;84;21425;-74
2020/12/08 02:22:03;;;;;;;39.03;19.80;;;;;;;2.05;77.69;100259.47;1694677;84;20980;-74
2020/12/08 02:24:29;;;;;;;36.17;20.07;;;;;;;2.05;77.76;100264.57;1696910;83;21142;-74
2020/12/08 02:26:55;;;;;;;36.40;21.23;;;;;;;2.06;77.76;100262.45;1696792;84;20917;-74
2020/12/08 02:29:21;;;;;;;35.47;20.23;;;;;;;2.03;77.71;100270.07;1691481;83;21682;-74
2020/12/08 02:31:47;;;;;;;35.83;20.20;;;;;;;2.01;77.71;100266.64;1696943;83;21119;-74
2020/12/08 02:34:12;;;;;;;32.93;19.07;;;;;;;1.99;77.74;100269.59;1687093;82;21785;-74
2020/12/08 02:36:38;;;;;;;27.60;16.97;;;;;;;1.98;77.78;100263.63;1681920;84;20972;-74
2020/12/08 02:39:04;;;;;;;32.03;18.73;;;;;;;1.98;77.82;100261.09;1694996;84;21037;-74
2020/12/08 02:41:30;;;;;;;30.73;19.00;;;;;;;1.97;77.74;100257.23;1697345;84;21678;-74
2020/12/08 02:43:56;;;;;;;33.70;19.73;;;;;;;1.95;77.78;100252.12;1695696;84;21287;-74
2020/12/08 02:46:22;;;;;;;32.75;19.07;;;;;;;1.94;77.85;100254.23;1696664;84;22536;-74
2020/12/08 02:48:48;;;;;;;34.20;18.97;;;;;;;1.94;77.81;100254.23;1676430;83;20985;-74
2020/12/08 02:51:19;;;;;;;35.43;20.85;;;;;;;1.91;77.78;100255.47;1695392;84;21456;-74
2020/12/08 02:53:45;;;;;;;38.65;21.37;;;;;;;1.91;77.84;100258.44;1688611;83;21225;-74
2020/12/08 02:56:12;;;;;;;30.65;18.92;;;;;;;1.89;77.85;100262.23;1686412;84;22304;-74
2020/12/08 02:58:38;;;;;;;34.80;21.05;;;;;;;1.87;77.78;100269.42;1686720;84;21747;-74
2020/12/08 03:01:05;;;;;;;36.35;20.37;;;;;;;1.85;77.88;100261.75;1687005;82;21254;-74
2020/12/08 03:03:31;;;;;;;35.28;19.62;;;;;;;1.86;77.87;100266.02;1703414;83;21394;-74
2020/12/08 03:05:57;;;;;;;34.67;19.20;;;;;;;1.86;77.93;100263.89;1678290;83;21593;-74
2020/12/08 03:08:23;;;;;;;33.20;19.53;;;;;;;1.85;77.88;100256.66;1705491;83;21111;-74
2020/12/08 03:10:49;;;;;;;33.58;19.37;;;;;;;1.86;77.85;100262.61;1699148;82;21219;-73
2020/12/08 03:13:15;;;;;;;33.37;19.97;;;;;;;1.83;77.87;100251.95;1711045;82;21649;-73
2020/12/08 03:15:41;;;;;;;35.52;20.55;;;;;;;1.73;77.92;100239.06;1709564;83;21582;-73
2020/12/08 03:18:06;;;;;;;34.13;20.27;;;;;;;1.84;77.97;100257.91;1680946;83;20992;-73
2020/12/08 03:20:32;;;;;;;40.43;21.17;;;;;;;1.83;77.89;100250.68;1704904;82;21429;-73
2020/12/08 03:22:58;;;;;;;38.83;19.93;;;;;;;1.80;77.93;100240.86;1697407;82;20944;-73
2020/12/08 03:25:24;;;;;;;30.43;19.43;;;;;;;1.80;77.99;100252.33;1709626;82;21039;-73
2020/12/08 03:27:50;;;;;;;35.55;19.30;;;;;;;1.79;77.97;100248.92;1701671;83;22045;-74
2020/12/08 03:30:16;;;;;;;35.23;20.20;;;;;;;1.78;78.00;100259.10;1709132;82;21420;-74
2020/12/08 03:32:42;;;;;;;37.17;20.23;;;;;;;1.77;77.95;100265.03;1710036;83;21181;-73
2020/12/08 03:35:08;;;;;;;36.93;20.50;;;;;;;1.74;77.98;100256.92;1708366;81;21463;-73
2020/12/08 03:37:34;;;;;;;34.43;20.95;;;;;;;1.75;78.04;100262.88;1710240;82;21062;-73
2020/12/08 03:40:00;;;;;;;33.43;19.80;;;;;;;1.72;78.03;100253.50;1705260;82;21087;-73
2020/12/08 03:42:26;;;;;;;37.87;20.77;;;;;;;1.69;78.02;100255.15;1689115;83;21748;-74
2020/12/08 03:44:51;;;;;;;39.13;21.57;;;;;;;1.70;78.09;100256.86;1708770;83;22410;-74
2020/12/08 03:47:17;;;;;;;41.47;22.40;;;;;;;1.68;78.04;100257.26;1710269;83;21055;-74
2020/12/08 03:49:43;;;;;;;36.77;21.70;;;;;;;1.62;78.01;100249.97;1706224;82;21422;-74
2020/12/08 03:52:09;;;;;;;39.40;21.70;;;;;;;1.62;78.14;100258.03;1709428;82;21447;-74
2020/12/08 03:54:35;;;;;;;35.03;21.30;;;;;;;1.62;78.15;100255.48;1708878;82;21193;-74
2020/12/08 03:57:01;;;;;;;42.07;21.53;;;;;;;1.60;78.12;100249.09;1709313;83;21646;-74
2020/12/08 03:59:27;;;;;;;41.17;22.23;;;;;;;1.59;78.06;100257.56;1700009;82;21565;-74
2020/12/08 04:01:53;;;;;;;38.47;21.50;;;;;;;1.56;78.11;100251.60;1703963;83;21292;-74
2020/12/08 04:04:19;;;;;;;35.08;22.15;;;;;;;1.57;78.14;100255.83;1719523;82;21751;-74
2020/12/08 04:06:47;;;;;;;38.20;21.07;;;;;;;1.56;78.13;100262.62;1733017;82;21187;-74
2020/12/08 04:09:13;;;;;;;36.53;20.97;;;;;;;1.54;78.17;100266.01;1718353;81;21198;-74
2020/12/08 04:11:39;;;;;;;35.60;21.37;;;;;;;1.55;78.19;100263.90;1724828;80;21240;-74
2020/12/08 04:14:05;;;;;;;38.60;22.20;;;;;;;1.54;78.16;100263.46;1730716;82;21157;-74
2020/12/08 04:16:33;;;;;;;40.67;22.90;;;;;;;1.51;78.14;100269.37;1720707;81;21169;-74
2020/12/08 04:19:00;;;;;;;40.65;22.00;;;;;;;1.50;78.15;100289.31;1723443;80;21168;-74
2020/12/08 04:21:28;;;;;;;38.02;22.90;;;;;;;1.48;78.16;100268.47;1716179;82;21229;-74
2020/12/08 04:24:00;;;;;;;36.88;21.97;;;;;;;1.47;78.17;100271.84;1726054;81;21200;-74
2020/12/08 04:26:23;;;;;;;41.90;23.05;;;;;;;1.42;78.16;100260.73;1730957;80;21145;-74
2020/12/08 04:28:49;;;;;;;38.50;22.70;;;;;;;1.40;78.14;100267.48;1714793;80;20950;-74
2020/12/08 04:31:16;;;;;;;41.07;22.43;;;;;;;1.37;78.16;100275.08;1725900;81;20936;-73
2020/12/08 04:33:43;;;;;;;42.88;21.48;;;;;;;1.36;78.26;100276.77;1732460;82;21377;-73
2020/12/08 04:36:18;;;;;;;43.92;25.55;;;;;;;1.36;78.28;100272.09;1710469;81;21196;-73
2020/12/08 04:38:45;;;;;;;38.50;22.05;;;;;;;1.35;78.23;100272.52;1720027;81;21236;-73
2020/12/08 04:41:12;;;;;;;40.45;22.58;;;;;;;1.33;78.25;100271.63;1729526;81;21090;-73
2020/12/08 04:43:42;;;;;;;38.83;21.90;;;;;;;1.33;78.24;100274.17;1726624;82;21127;-74
2020/12/08 04:46:11;;;;;;;49.90;23.07;;;;;;;1.30;78.27;100280.08;1726345;81;21144;-74
2020/12/08 04:48:37;;;;;;;42.75;22.48;;;;;;;1.31;78.31;100277.12;1704472;82;21113;-73
2020/12/08 04:51:06;;;;;;;39.80;22.80;;;;;;;1.32;78.32;100278.83;1718265;81;21644;-74
2020/12/08 04:53:33;;;;;;;37.78;21.73;;;;;;;1.30;78.29;100280.49;1733012;81;21518;-74
2020/12/08 04:58:25;;;;;;;32.93;19.20;;;;;;;1.33;78.35;100272.91;1861058;75;22918;-74
2020/12/08 05:00:51;;;;;;;40.17;22.75;;;;;;;1.28;78.27;100299.57;1816882;77;21028;-74
2020/12/08 05:03:24;;;;;;;43.08;23.50;;;;;;;1.27;78.30;100285.54;1830821;76;21332;-73
2020/12/08 05:05:51;;;;;;;42.78;22.17;;;;;;;1.25;78.40;100290.61;1833049;77;21092;-76
2020/12/08 05:08:17;;;;;;;36.55;22.73;;;;;;;1.26;78.42;100286.38;1760456;80;26690;-73
2020/12/08 05:10:44;;;;;;;37.83;22.90;;;;;;;1.27;78.42;100286.39;1826210;77;28983;-73
2020/12/08 05:13:21;;;;;;;;;;;;;;;1.28;78.41;100284.30;1793507;77;21182;-74
2020/12/08 05:16:06;;;;;;;40.90;21.50;;;;;;;1.29;78.47;100287.70;1829565;77;21163;-74
2020/12/08 05:18:36;;;;;;;41.35;20.82;;;;;;;1.29;78.40;100283.88;1793418;77;21008;-72
2020/12/08 05:21:11;;;;;;;38.92;22.05;;;;;;;1.29;78.44;100286.42;1821589;77;21067;-73
2020/12/08 05:23:41;;;;;;;41.80;22.27;;;;;;;1.27;78.38;100287.67;1844823;77;21611;-73
2020/12/08 05:26:08;;;;;;;33.98;21.33;;;;;;;1.25;78.37;100287.20;1829011;77;21199;-73
2020/12/08 05:28:36;;;;;;;38.42;21.80;;;;;;;1.25;78.46;100289.75;1840263;77;22155;-73
2020/12/08 05:31:02;;;;;;;42.73;22.50;;;;;;;1.24;78.41;100279.98;1826551;77;21222;-73
2020/12/08 05:33:28;;;;;;;41.28;22.77;;;;;;;1.24;78.44;100289.31;1811680;78;21174;-73
2020/12/08 05:35:57;;;;;;;44.03;24.18;;;;;;;1.24;78.48;100295.26;1827101;77;20934;-72
2020/12/08 05:38:38;;;;;;;37.05;23.30;;;;;;;1.24;78.46;100282.94;1829293;77;21154;-73
2020/12/08 05:41:07;;;;;;;40.52;23.60;;;;;;;1.23;78.46;100291.00;1816103;77;21197;-73
2020/12/08 05:43:42;;;;;;;35.15;22.10;;;;;;;1.24;78.45;100291.44;1774470;77;21114;-73
2020/12/08 05:46:10;;;;;;;39.78;22.35;;;;;;;1.22;78.42;100303.70;1778024;77;21232;-73
2020/12/08 05:48:37;;;;;;;39.63;21.27;;;;;;;1.21;78.51;100310.48;1775130;79;21081;-73
2020/12/08 05:51:04;;;;;;;38.35;21.85;;;;;;;1.22;78.47;100311.34;1772604;78;21090;-73
2020/12/08 05:53:30;;;;;;;40.55;22.73;;;;;;;1.23;78.54;100312.64;1769551;79;22009;-73
2020/12/08 05:56:07;;;;;;;37.88;22.07;;;;;;;1.24;78.56;100313.09;1764445;77;21649;-73
2020/12/08 05:58:34;;;;;;;38.78;22.05;;;;;;;1.24;78.51;100311.81;1792521;78;21519;-73
2020/12/08 06:01:07;;;;;;;41.37;23.00;;;;;;;1.25;78.51;100316.08;1791947;77;21129;-73
2020/12/08 06:03:36;;;;;;;42.90;23.52;;;;;;;1.23;78.43;100321.56;1743366;78;21603;-73
2020/12/08 06:06:09;;;;;;;41.65;23.98;;;;;;;1.21;78.48;100316.00;1807978;77;21187;-74
2020/12/08 06:08:47;;;;;;;41.55;24.55;;;;;;;1.19;78.47;100310.88;1807426;77;21135;-73
2020/12/08 06:11:17;;;;;;;41.92;23.90;;;;;;;1.20;78.50;100315.55;1806607;77;21090;-73
2020/12/08 06:13:48;;;;;;;39.13;22.42;;;;;;;1.17;78.53;100309.99;1795623;78;21122;-73
2020/12/08 06:16:20;;;;;;;40.78;21.93;;;;;;;1.17;78.53;100324.41;1808702;77;21270;-73
2020/12/08 06:18:47;;;;;;;41.50;22.62;;;;;;;1.18;78.58;100319.77;1821009;77;22382;-73
2020/12/08 06:21:26;;;;;;;42.80;24.67;;;;;;;1.17;78.55;100321.87;1814584;77;20980;-73
2020/12/08 06:23:55;;;;;;;48.25;24.50;;;;;;;1.15;78.53;100319.30;1806693;77;21091;-73
2020/12/08 06:26:28;;;;;;;39.10;22.90;;;;;;;1.13;78.53;100318.41;1829902;77;21103;-74
2020/12/08 06:28:54;;;;;;;41.92;23.55;;;;;;;1.13;78.53;100317.55;1767520;80;21130;-75
2020/12/08 06:31:21;;;;;;;39.38;22.65;;;;;;;1.09;78.52;100324.70;1731344;81;21395;-74
2020/12/08 06:33:51;;;;;;;37.85;22.67;;;;;;;1.05;78.55;100336.52;1732919;81;21023;-74
2020/12/08 06:36:19;;;;;;;39.88;22.73;;;;;;;1.05;78.60;100339.48;1749037;81;21138;-74
2020/12/08 06:39:01;;;;;;;37.30;22.95;;;;;;;1.05;78.62;100342.88;1744682;81;21159;-74
2020/12/08 06:41:39;;;;;;;45.25;23.22;;;;;;;1.04;78.61;100350.08;1690842;81;21444;-74
2020/12/08 06:44:17;;;;;;;39.78;22.95;;;;;;;1.05;78.62;100359.84;1742627;81;21231;-74
2020/12/08 06:47:00;;;;;;;38.33;22.30;;;;;;;1.04;78.58;100355.61;1704375;83;21548;-74
2020/12/08 06:50:09;;;;;;;40.12;23.35;;;;;;;1.03;78.65;100358.58;1676178;83;21134;-76
2020/12/08 06:52:10;;;;;;;42.67;24.18;;;;;;;1.05;78.69;100350.52;1707904;83;21955;-74
2020/12/08 06:54:36;;;;;;;40.05;23.50;;;;;;;1.05;78.66;100363.25;1702556;83;21683;-75
2020/12/08 06:57:06;;;;;;;40.35;22.20;;;;;;;1.04;78.63;100369.62;1676827;83;21157;-75
2020/12/08 06:59:32;;;;;;;43.40;23.87;;;;;;;1.02;78.60;100377.22;1711966;82;21137;-76
2020/12/08 07:01:59;;;;;;;41.33;24.00;;;;;;;1.02;78.70;100386.13;1724067;82;21008;-75
2020/12/08 07:04:28;;;;;;;39.85;24.05;;;;;;;1.03;78.66;100381.90;1719315;82;21283;-75
2020/12/08 07:06:55;;;;;;;45.65;25.05;;;;;;;1.03;78.69;100385.72;1764111;80;21192;-76
2020/12/08 07:09:21;;;;;;;39.85;23.70;;;;;;;1.02;78.70;100389.95;1747444;80;21905;-75
2020/12/08 07:11:47;;;;;;;40.73;23.40;;;;;;;1.04;78.75;100398.89;1776326;80;21554;-76
2020/12/08 07:14:13;;;;;;;39.03;22.90;;;;;;;1.03;78.62;100394.22;1747150;81;21473;-75
2020/12/08 07:16:41;;;;;;;40.10;23.25;;;;;;;1.02;78.69;100391.23;1745114;81;21955;-75
2020/12/08 07:19:08;;;;;;;38.48;23.22;;;;;;;1.01;78.69;100379.33;1774869;80;21231;-75
2020/12/08 07:21:37;;;;;;;45.15;24.43;;;;;;;1.02;78.74;100376.36;1764469;78;21172;-75
2020/12/08 07:24:03;;;;;;;41.42;24.92;;;;;;;0.99;78.70;100383.12;1769744;78;21769;-75
2020/12/08 07:26:30;;;;;;;45.17;25.68;;;;;;;0.99;78.70;100384.80;1752074;80;20966;-75
2020/12/08 07:28:59;;;;;;;42.03;24.12;;;;;;;0.98;78.72;100386.91;1762156;80;21219;-75
2020/12/08 07:31:31;;;;;;;40.12;24.05;;;;;;;0.97;78.72;100395.38;1771832;80;21496;-76
2020/12/08 07:34:01;;;;;;;39.38;23.27;;;;;;;0.97;78.75;100390.28;1784699;78;21822;-74
2020/12/08 07:36:32;;;;;;;40.78;23.90;;;;;;;0.97;78.77;100396.23;1769033;80;21260;-74
2020/12/08 07:39:03;;;;;;;47.48;22.27;;;;;;;0.99;78.77;100389.89;1768713;80;21200;-74
2020/12/08 07:41:31;;;;;;;42.62;22.90;;;;;;;1.00;78.77;100385.25;1764336;80;21542;-74
2020/12/08 07:43:59;;;;;;;34.27;22.25;;;;;;;1.02;78.84;100389.95;1779133;78;21209;-75
2020/12/08 07:46:27;;;;;;;36.13;22.82;;;;;;;1.04;78.83;100397.62;1784717;80;21652;-75
2020/12/08 07:49:03;;;;;;;43.15;24.72;;;;;;;1.04;78.80;100391.26;1753382;80;21805;-75
2020/12/08 07:51:30;;;;;;;41.42;24.25;;;;;;;1.04;78.76;100388.27;1767317;80;21228;-74
2020/12/08 07:53:59;;;;;;;38.58;23.70;;;;;;;1.02;78.76;100400.14;1759782;78;21467;-74
2020/12/08 07:56:28;;;;;;;39.15;23.00;;;;;;;1.03;78.80;100398.03;1784808;80;21093;-75
2020/12/08 07:58:54;;;;;;;40.83;22.42;;;;;;;1.04;78.78;100389.98;1777903;78;23013;-75
2020/12/08 08:01:20;;;;;;;40.73;23.27;;;;;;;1.05;78.84;100387.84;1775951;78;21101;-75
2020/12/08 08:04:03;;;;;;;42.90;23.45;;;;;;;1.04;78.78;100389.53;1805282;78;21406;-75
2020/12/08 08:06:28;;;;;;;39.95;22.48;;;;;;;1.02;78.73;100388.68;1719959;81;21126;-76
2020/12/08 08:08:54;;;;;;;38.38;22.62;;;;;;;1.00;78.80;100394.16;1724815;81;21105;-77
2020/12/08 08:11:20;;;;;;;38.45;23.85;;;;;;;1.02;78.81;100396.31;1747965;81;21161;-77
2020/12/08 08:13:47;;;;;;;39.98;23.65;;;;;;;1.02;78.84;100409.05;1741773;81;21458;-77
2020/12/08 08:16:16;;;;;;;39.50;23.32;;;;;;;1.03;78.84;100404.81;1730515;81;21338;-76
2020/12/08 08:18:42;;;;;;;39.15;23.10;;;;;;;1.04;78.86;100400.17;1792360;78;21106;-75
2020/12/08 08:21:08;;;;;;;45.35;23.55;;;;;;;1.04;78.84;100395.91;1786236;78;21489;-75
2020/12/08 08:23:35;;;;;;;42.25;24.67;;;;;;;1.05;78.83;100398.03;1779433;78;21161;-75
2020/12/08 08:26:16;;;;;;;41.05;24.35;;;;;;;1.05;78.82;100403.98;1765641;79;21106;-75
2020/12/08 08:28:41;;;;;;;41.75;23.90;;;;;;;1.06;78.87;100400.61;1782663;78;21404;-75
2020/12/08 08:31:08;;;;;;;38.23;23.00;;;;;;;1.08;78.87;100402.77;1792233;78;20967;-75
2020/12/08 08:33:34;;;;;;;43.33;24.47;;;;;;;1.10;78.87;100396.43;1768757;79;21117;-76
2020/12/08 08:36:22;;;;;;;;;;;;;;;;;;;;;
2020/12/08 08:38:40;;;;;;;41.50;24.00;;;;;;;1.12;78.90;100396.05;1783743;79;20967;-76
2020/12/08 08:41:08;;;;;;;41.75;23.92;;;;;;;1.13;78.87;100394.80;1770649;77;21106;-75
2020/12/08 08:43:34;;;;;;;40.58;24.18;;;;;;;1.12;78.79;100387.99;1780498;79;21539;-76
2020/12/08 08:46:01;;;;;;;43.78;24.18;;;;;;;1.11;78.81;100378.63;1796930;78;21886;-75
2020/12/08 08:48:27;;;;;;;46.53;24.07;;;;;;;1.11;78.93;100387.97;1768097;79;21091;-75
2020/12/08 08:50:56;;;;;;;42.50;22.90;;;;;;;1.13;78.85;100397.34;1783953;79;21335;-75
2020/12/08 08:53:22;;;;;;;40.60;23.18;;;;;;;1.14;78.86;100399.06;1779909;79;21105;-75
2020/12/08 08:55:49;;;;;;;35.60;22.02;;;;;;;1.14;78.89;100403.30;1795498;77;21120;-75
2020/12/08 08:58:18;;;;;;;40.10;22.65;;;;;;;1.15;78.85;100415.20;1762494;78;21391;-76
2020/12/08 09:00:43;;;;;;;39.88;23.52;;;;;;;1.13;78.82;100420.27;1775382;79;21106;-75
2020/12/08 09:03:10;;;;;;;42.30;23.85;;;;;;;1.12;78.87;100420.23;1768670;80;21109;-75
2020/12/08 09:05:36;;;;;;;42.50;23.55;;;;;;;1.05;78.97;100417.98;1775258;79;21125;-75
2020/12/08 09:08:03;;;;;;;40.65;23.45;;;;;;;1.05;78.97;100417.98;1787594;79;21098;-75
2020/12/08 09:10:30;;;;;;;38.25;22.82;;;;;;;1.19;78.97;100438.62;1776272;77;21109;-76
2020/12/08 09:12:56;;;;;;;;;;;;;;;1.19;78.92;100447.12;1779294;78;21213;-75
2020/12/08 09:15:22;;;;;;;41.70;23.75;;;;;;;1.20;78.93;100449.25;1776179;77;20203;-77
2020/12/08 09:17:49;;;;;;;40.40;21.97;;;;;;;1.22;78.98;100449.72;1795286;78;21113;-75
2020/12/08 09:20:18;;;;;;;33.15;20.75;;;;;;;1.24;78.99;100454.43;1783491;77;21098;-75
2020/12/08 09:22:57;;;;;;;42.48;22.67;;;;;;;1.26;78.97;100450.23;1786406;78;21089;-75
2020/12/08 09:25:22;;;;;;;43.17;23.30;;;;;;;1.25;78.92;100454.88;1772752;80;21145;-75
2020/12/08 09:27:49;;;;;;;40.23;23.22;;;;;;;1.25;78.98;100451.05;1793311;78;20991;-75
2020/12/08 09:30:15;;;;;;;42.38;23.20;;;;;;;1.27;78.97;100443.03;1794862;78;21117;-75
2020/12/08 09:32:54;;;;;;;37.40;22.67;;;;;;;1.29;78.94;100436.69;1775925;79;21101;-75
2020/12/08 09:35:21;;;;;;;44.63;24.67;;;;;;;1.30;79.00;100430.77;1766576;80;21109;-76
2020/12/08 09:37:47;;;;;;;36.80;21.42;;;;;;;1.31;78.96;100442.26;1780919;80;21137;-75
2020/12/08 09:40:13;;;;;;;39.92;23.05;;;;;;;1.31;78.98;100433.76;1781117;78;21122;-75
2020/12/08 09:42:42;;;;;;;40.38;23.05;;;;;;;1.32;79.02;100431.66;1780385;78;21915;-75
2020/12/08 09:45:19;;;;;;;41.13;22.93;;;;;;;1.36;79.01;100428.75;1767233;79;21132;-75
2020/12/08 09:47:38;;;;;;;43.90;26.07;;;;;;;1.36;78.98;100421.11;1769091;79;21617;-75
2020/12/08 09:50:07;;;;;;;37.00;22.85;;;;;;;1.33;78.95;100417.67;1758581;79;21214;-75
2020/12/08 09:52:33;;;;;;;41.77;23.90;;;;;;;1.35;79.02;100428.30;1772034;79;21125;-75
2020/12/08 09:55:00;;;;;;;39.20;22.67;;;;;;;1.34;78.94;100418.53;1787319;79;21114;-75
2020/12/08 09:57:28;;;;;;;44.93;23.45;;;;;;;1.33;78.98;100415.54;1785872;79;28188;-75
2020/12/08 09:59:54;;;;;;;43.05;25.08;;;;;;;1.35;79.06;100412.61;1775943;79;21090;-75
2020/12/08 10:02:23;;;;;;;38.88;23.57;;;;;;;1.37;79.07;100417.73;1782434;78;26580;-75
2020/12/08 10:04:50;;;;;;;37.53;23.07;;;;;;;1.38;79.01;100419.03;1757200;80;21121;-75
2020/12/08 10:07:18;;;;;;;42.70;24.77;;;;;;;1.39;79.06;100427.53;1757512;79;21106;-75
2020/12/08 10:09:49;;;;;;;36.90;23.07;;;;;;;1.41;79.07;100425.45;1782423;80;21093;-75
2020/12/08 10:12:16;;;;;;;37.63;23.20;;;;;;;1.42;79.05;100424.63;1776623;80;21102;-75
2020/12/08 10:14:43;;;;;;;42.75;24.18;;;;;;;1.44;79.09;100437.39;1768808;80;22338;-75
2020/12/08 10:17:14;;;;;;;40.65;24.18;;;;;;;1.46;79.10;100433.18;1758224;80;21117;-75
2020/12/08 10:19:45;;;;;;;39.55;22.80;;;;;;;1.46;79.05;100439.55;1770922;80;21105;-75
2020/12/08 10:22:12;;;;;;;36.73;22.98;;;;;;;1.45;79.05;100434.88;1770295;80;21094;-75
2020/12/08 10:24:39;;;;;;;39.83;23.47;;;;;;;1.46;79.09;100434.45;1784404;80;21078;-75
2020/12/08 10:27:06;;;;;;;37.42;21.57;;;;;;;1.45;79.06;100437.83;1767006;80;21225;-75
2020/12/08 10:29:32;;;;;;;;;;;;;;;1.45;79.13;100438.69;1763001;79;21106;-75
2020/12/08 10:31:59;;;;;;;37.42;22.60;;;;;;;1.47;79.14;100438.72;1764342;80;20258;-75
2020/12/08 10:34:25;;;;;;;;;;;;;;;1.48;79.14;100440.44;1781527;80;21392;-75
2020/12/08 10:36:52;;;;;;;43.95;23.00;;;;;;;1.49;79.16;100437.05;1774308;80;20902;-75
2020/12/08 10:39:18;;;;;;;41.02;24.75;;;;;;;1.48;79.21;100427.28;1757515;80;24411;-75
2020/12/08 10:41:44;;;;;;;41.95;24.35;;;;;;;1.52;79.24;100439.66;1765202;80;21114;-75
2020/12/08 10:44:11;;;;;;;44.42;24.87;;;;;;;1.55;79.24;100434.62;1767122;80;21106;-76
2020/12/08 10:46:38;;;;;;;44.85;24.05;;;;;;;1.56;79.16;100437.16;1769322;79;21085;-76
2020/12/08 10:49:04;;;;;;;38.15;23.18;;;;;;;1.56;79.19;100440.98;1780127;80;21400;-75
2020/12/08 10:51:31;;;;;;;46.63;25.27;;;;;;;1.54;79.08;100433.76;1773513;78;21299;-75
2020/12/08 10:53:57;;;;;;;37.23;22.65;;;;;;;1.52;79.08;100433.29;1778654;80;21133;-75
2020/12/08 10:56:25;;;;;;;41.65;24.77;;;;;;;1.50;78.95;100426.03;1771504;80;21127;-75
2020/12/08 10:58:53;;;;;;;44.38;23.62;;;;;;;1.48;79.15;100429.83;1755689;78;21138;-75
2020/12/08 11:01:24;;;;;;;41.48;24.45;;;;;;;1.45;79.15;100420.00;1802741;78;21102;-75
2020/12/08 11:03:51;;;;;;;43.42;24.92;;;;;;;1.42;79.16;100411.03;1789807;78;22291;-75
2020/12/08 11:06:24;;;;;;;43.20;24.05;;;;;;;1.43;79.22;100419.11;1791868;77;21102;-75
2020/12/08 11:08:52;;;;;;;46.18;26.05;;;;;;;1.40;79.17;100407.17;1811703;77;21525;-75
2020/12/08 11:11:24;;;;;;;48.02;26.12;;;;;;;1.41;79.31;100399.13;1815021;77;21114;-75
2020/12/08 11:13:51;;;;;;;39.65;24.32;;;;;;;1.45;79.34;100412.36;1784187;78;21528;-75
2020/12/08 11:16:18;;;;;;;44.67;24.63;;;;;;;1.46;79.31;100411.11;1802170;77;22251;-75
2020/12/08 11:18:44;;;;;;;41.25;22.42;;;;;;;1.49;79.34;100419.22;1808454;77;21116;-75
2020/12/08 11:21:11;;;;;;;40.98;24.70;;;;;;;1.50;79.36;100423.07;1795387;77;21106;-75
2020/12/08 11:23:40;;;;;;;41.45;24.70;;;;;;;1.51;79.33;100426.48;1808493;77;21119;-75